Time;durP1;ratioP1;P1;durP2;ratioP2;P2;SDS_P1;SDS_P2;PMS_P1;PMS_P2;Temp;Humidity;BMP_temperature;BMP_pressure;BME280_temperature;BME280_humidity;BME280_pressure;Samples;Min_cycle;Max_cycle;Signal;HPM_P1;HPM_P2
2021/07/21 00:01:13;;;;;;;11.53;10.43;;;;;;;22.25;100.00;102078.06;1903981;75;86488;-82
2021/07/21 00:06:40;;;;;;;11.22;10.13;;;;;;;22.17;100.00;102083.73;1780626;79;86150;-75
2021/07/21 00:18:00;;;;;;;15.85;13.20;;;;;;;22.10;100.00;102076.34;1945669;73;39768;-80
2021/07/21 00:23:27;;;;;;;10.60;9.65;;;;;;;22.00;100.00;102071.00;1867852;75;86275;-75
2021/07/21 00:28:55;;;;;;;11.35;9.73;;;;;;;22.09;100.00;102067.59;1945392;73;40527;-80
2021/07/21 00:34:22;;;;;;;14.38;11.95;;;;;;;21.82;100.00;102077.81;1892711;75;86355;-81
2021/07/21 00:39:48;;;;;;;21.67;17.90;;;;;;;21.68;100.00;102075.96;1936345;73;39523;-76
2021/07/21 00:45:16;;;;;;;13.40;11.90;;;;;;;21.63;100.00;102064.80;1875917;75;87187;-80
2021/07/21 00:50:40;;;;;;;11.60;10.38;;;;;;;21.82;100.00;102072.16;1860374;76;85496;-81
2021/07/21 00:56:08;;;;;;;12.07;10.40;;;;;;;21.66;100.00;102068.95;1943028;73;39667;-81
2021/07/21 01:01:35;;;;;;;10.95;9.85;;;;;;;21.68;100.00;102073.14;1879705;75;86208;-81
2021/07/21 01:07:05;;;;;;;23.40;19.25;;;;;;;21.49;100.00;102068.34;1943843;73;39498;-81
2021/07/21 01:12:37;;;;;;;13.10;9.65;;;;;;;21.53;100.00;102080.66;1873814;75;86740;-80
2021/07/21 01:24:38;;;;;;;11.40;9.67;;;;;;;21.40;100.00;102087.86;1776874;79;86292;-81
2021/07/21 01:27:23;;;;;;;11.22;10.03;;;;;;;21.35;100.00;102091.67;1708047;80;936760;-80
2021/07/21 01:29:56;;;;;;;10.50;9.40;;;;;;;20.99;100.00;102095.25;1679677;82;941006;-81
2021/07/21 01:38:39;;;;;;;10.28;9.10;;;;;;;21.06;100.00;102092.78;1965411;71;40123;-75
2021/07/21 01:44:12;;;;;;;9.63;8.43;;;;;;;20.62;100.00;102103.63;1943087;73;39548;-82
2021/07/21 01:49:40;;;;;;;9.97;8.63;;;;;;;20.56;100.00;102095.85;1824638;77;86449;-75
2021/07/21 01:55:35;;;;;;;10.23;8.57;;;;;;;20.69;100.00;102106.23;1881475;75;86608;-75
2021/07/21 02:01:30;;;;;;;9.90;8.00;;;;;;;20.52;100.00;102101.89;1876284;75;86487;-75
2021/07/21 02:07:26;;;;;;;9.97;8.10;;;;;;;20.28;100.00;102105.59;1900144;73;39506;-76
2021/07/21 02:13:17;;;;;;;9.77;8.77;;;;;;;20.20;100.00;102109.16;1915220;73;39492;-75
2021/07/21 02:18:54;;;;;;;10.63;8.40;;;;;;;20.22;100.00;102109.11;1946089;73;39544;-75
2021/07/21 02:24:17;;;;;;;9.90;8.00;;;;;;;20.17;100.00;102111.22;1876491;75;86352;-75
2021/07/21 02:29:43;;;;;;;10.70;8.83;;;;;;;19.98;100.00;102105.16;1938738;72;39489;-80
2021/07/21 02:35:18;;;;;;;9.87;7.93;;;;;;;20.17;100.00;102112.05;1890999;74;86628;-81
2021/07/21 02:40:45;;;;;;;10.17;9.00;;;;;;;20.07;100.00;102113.70;1947867;73;39454;-75
2021/07/21 02:46:12;;;;;;;10.77;9.30;;;;;;;20.01;100.00;102112.17;1909978;73;39741;-80
2021/07/21 02:51:48;;;;;;;10.77;8.57;;;;;;;19.98;100.00;102115.64;1866449;75;85576;-75
2021/07/21 02:57:18;;;;;;;15.30;9.93;;;;;;;20.13;100.00;102113.02;1890913;74;85568;-81
2021/07/21 03:02:51;;;;;;;13.13;9.00;;;;;;;19.99;100.00;102113.05;1920869;73;39724;-80
2021/07/21 03:08:21;;;;;;;14.60;10.73;;;;;;;19.88;100.00;102119.52;1876519;74;86157;-80
2021/07/21 03:13:51;;;;;;;11.43;9.37;;;;;;;19.77;100.00;102117.23;1920595;73;39607;-76
2021/07/21 03:19:26;;;;;;;12.20;10.40;;;;;;;19.72;100.00;102126.66;1876948;74;86048;-81
2021/07/21 03:24:53;;;;;;;17.17;11.20;;;;;;;19.84;100.00;102128.36;1946181;73;39564;-76
2021/07/21 03:30:22;;;;;;;13.57;11.10;;;;;;;19.75;100.00;102118.14;1876586;75;86487;-75
2021/07/21 03:35:52;;;;;;;12.40;10.70;;;;;;;19.52;100.00;102129.33;1919922;73;39461;-76
2021/07/21 03:41:21;;;;;;;13.47;10.40;;;;;;;19.48;100.00;102131.11;1892430;74;86419;-80
2021/07/21 03:46:50;;;;;;;11.90;9.90;;;;;;;19.48;100.00;102129.70;1946558;73;39681;-80
2021/07/21 03:52:39;;;;;;;11.80;9.80;;;;;;;19.47;100.00;102133.67;1880001;74;85473;-82
2021/07/21 03:58:08;;;;;;;12.80;10.40;;;;;;;19.34;100.00;102132.25;1894073;73;39449;-80
2021/07/21 04:03:29;;;;;;;14.70;11.90;;;;;;;19.33;100.00;102138.46;1914560;73;86560;-80
2021/07/21 04:11:49;;;;;;;16.27;14.17;;;;;;;19.21;100.00;102142.34;1968238;71;39553;-79
2021/07/21 04:14:20;;;;;;;15.00;12.67;;;;;;;19.30;100.00;102140.47;1887666;74;938688;-75
2021/07/21 04:16:52;;;;;;;16.83;13.77;;;;;;;19.31;100.00;102146.38;1861793;74;940918;-75
2021/07/21 04:19:23;;;;;;;14.50;12.00;;;;;;;19.31;100.00;102146.38;1881066;74;940907;-76
2021/07/21 04:24:53;;;;;;;12.53;9.03;;;;;;;19.19;100.00;102143.81;1919741;73;40575;-76
2021/07/21 04:30:20;;;;;;;14.50;12.23;;;;;;;19.22;100.00;102142.61;1881359;75;86373;-80
2021/07/21 04:35:49;;;;;;;13.83;11.53;;;;;;;19.14;100.00;102146.73;1921960;72;39613;-80
2021/07/21 04:41:13;;;;;;;12.77;10.27;;;;;;;19.14;100.00;102138.27;1952724;72;39592;-80
2021/07/21 04:46:39;;;;;;;12.13;10.83;;;;;;;19.13;100.00;102149.27;1782263;80;85732;-81
2021/07/21 04:52:09;;;;;;;17.20;13.47;;;;;;;19.14;100.00;102150.95;1943728;72;39445;-75
2021/07/21 04:57:36;;;;;;;21.57;13.93;;;;;;;19.25;100.00;102158.08;1860595;76;86236;-75
2021/07/21 05:03:06;;;;;;;12.57;10.17;;;;;;;19.17;100.00;102164.44;1899473;73;39507;-81
2021/07/21 05:08:31;;;;;;;17.23;12.60;;;;;;;19.19;100.00;102167.19;1947022;71;86666;-80
2021/07/21 05:13:59;;;;;;;16.63;13.47;;;;;;;19.30;100.00;102164.42;1945026;73;39457;-76
2021/07/21 05:19:27;;;;;;;15.67;13.23;;;;;;;19.45;100.00;102164.16;1866708;75;86454;-81
2021/07/21 05:24:53;;;;;;;20.33;13.70;;;;;;;19.54;100.00;102172.15;1900991;73;39529;-83
2021/07/21 05:30:20;;;;;;;17.40;12.53;;;;;;;19.53;100.00;102171.88;1876283;75;86598;-75
2021/07/21 05:35:49;;;;;;;19.47;15.27;;;;;;;19.77;100.00;102180.67;1920136;73;39513;-79
2021/07/21 05:41:16;;;;;;;19.00;14.03;;;;;;;19.88;100.00;102181.56;1876247;75;86428;-75
2021/07/21 05:46:41;;;;;;;18.00;14.53;;;;;;;20.09;100.00;102181.94;1925360;73;39473;-77
2021/07/21 05:52:07;;;;;;;19.90;15.27;;;;;;;20.17;100.00;102187.40;1943200;73;39556;-79
2021/07/21 05:57:30;;;;;;;19.67;16.17;;;;;;;20.22;100.00;102196.59;1899007;75;86847;-80
2021/07/21 06:03:01;;;;;;;23.23;15.17;;;;;;;20.36;100.00;102199.41;1900800;73;39480;-82
2021/07/21 06:08:28;;;;;;;22.53;16.77;;;;;;;20.57;100.00;102201.16;1876677;76;86610;-83
2021/07/21 06:13:57;;;;;;;20.40;16.57;;;;;;;20.57;100.00;102196.34;1918398;73;49279;-85
2021/07/21 06:19:21;;;;;;;22.57;17.43;;;;;;;20.65;100.00;102205.45;1877316;75;86929;-85
2021/07/21 06:24:46;;;;;;;20.37;15.73;;;;;;;20.82;100.00;102205.58;1947614;73;39581;-78
2021/07/21 06:30:16;;;;;;;25.10;18.30;;;;;;;20.84;100.00;102213.14;1903977;75;86296;-79
2021/07/21 06:35:40;;;;;;;28.30;22.10;;;;;;;20.97;100.00;102206.32;1882747;75;86406;-81
2021/07/21 06:43:52;;;;;;;24.03;17.60;;;;;;;21.16;100.00;102206.41;2001892;69;39512;-81
2021/07/21 06:46:23;;;;;;;32.87;22.57;;;;;;;21.16;100.00;102213.47;1881677;74;938817;-81
2021/07/21 06:48:53;;;;;;;27.67;20.93;;;;;;;21.23;100.00;102210.17;1883575;75;940874;-80
2021/07/21 06:54:18;;;;;;;36.93;26.67;;;;;;;21.33;100.00;102208.48;1878144;76;86412;-80
2021/07/21 06:59:46;;;;;;;37.30;25.97;;;;;;;21.51;100.00;102210.82;1949375;73;39693;-80
2021/07/21 07:05:12;;;;;;;23.13;17.07;;;;;;;21.74;100.00;102213.22;1925519;72;39486;-77
2021/07/21 07:10:37;;;;;;;30.43;23.97;;;;;;;21.72;100.00;102223.21;1777576;79;86075;-76
2021/07/21 07:16:02;;;;;;;33.33;24.93;;;;;;;21.96;100.00;102222.80;1918633;73;40713;-75
2021/07/21 07:21:29;;;;;;;31.43;24.93;;;;;;;22.08;100.00;102221.58;1837889;77;86340;-76
2021/07/21 07:26:53;;;;;;;34.30;24.47;;;;;;;22.18;100.00;102232.02;1919181;73;39527;-77
2021/07/21 07:32:18;;;;;;;25.93;19.33;;;;;;;22.32;100.00;102233.87;1877555;75;86384;-79
2021/07/21 07:37:46;;;;;;;29.37;21.73;;;;;;;22.28;100.00;102245.61;1939542;72;39595;-77
2021/07/21 07:43:13;;;;;;;33.48;24.82;;;;;;;22.42;100.00;102242.86;1943437;73;40205;-77
2021/07/21 07:48:38;;;;;;;34.58;26.25;;;;;;;22.87;100.00;102243.98;1773346;79;86345;-74
2021/07/21 07:54:03;;;;;;;32.60;24.92;;;;;;;23.03;100.00;102244.55;1943873;73;39680;-75
2021/07/21 07:59:29;;;;;;;33.50;25.72;;;;;;;23.36;100.00;102240.53;1868624;76;86498;-73
2021/07/21 08:04:53;;;;;;;29.70;23.32;;;;;;;23.71;100.00;102246.95;1918263;73;40171;-74
2021/07/21 08:10:18;;;;;;;31.87;23.98;;;;;;;23.94;100.00;102243.25;1876111;75;86592;-74
2021/07/21 08:15:44;;;;;;;31.87;23.70;;;;;;;24.38;100.00;102243.27;1938396;72;39784;-73
2021/07/21 08:21:08;;;;;;;30.65;21.55;;;;;;;24.70;100.00;102238.81;1924246;73;39601;-75
2021/07/21 08:26:32;;;;;;;29.45;21.87;;;;;;;24.84;100.00;102233.09;1779595;79;86136;-74
2021/07/21 08:31:57;;;;;;;31.52;22.73;;;;;;;25.02;100.00;102241.48;1916929;73;39512;-73
2021/07/21 08:37:22;;;;;;;24.02;16.73;;;;;;;25.26;100.00;102234.44;1901945;74;86435;-75
2021/07/21 08:42:46;;;;;;;27.32;19.32;;;;;;;25.53;100.00;102233.83;1947680;73;39446;-75
2021/07/21 08:48:13;;;;;;;26.95;17.92;;;;;;;25.66;100.00;102234.08;1929783;72;40682;-76
2021/07/21 08:53:40;;;;;;;19.92;15.65;;;;;;;25.64;100.00;102228.48;1881758;75;86336;-75
2021/07/21 08:59:06;;;;;;;19.62;15.60;;;;;;;25.72;100.00;102238.92;1913386;73;39680;-76
2021/07/21 09:04:32;;;;;;;17.77;14.60;;;;;;;25.76;100.00;102233.59;1750953;80;86844;-73
2021/07/21 09:09:57;;;;;;;26.17;18.65;;;;;;;25.91;100.00;102227.80;1945151;72;39596;-75
2021/07/21 09:15:22;;;;;;;25.72;19.35;;;;;;;25.78;100.00;102238.94;1876033;74;86638;-76
2021/07/21 09:21:08;;;;;;;22.40;17.55;;;;;;;26.09;100.00;102241.19;1949329;73;39499;-74
2021/07/21 09:26:40;;;;;;;19.87;16.25;;;;;;;26.25;100.00;102235.03;1782008;79;86207;-75
2021/07/21 09:32:07;;;;;;;25.60;17.20;;;;;;;26.22;100.00;102236.59;1943547;73;39403;-75
2021/07/21 09:37:35;;;;;;;21.12;16.55;;;;;;;26.42;100.00;102229.06;1824290;78;86322;-75
2021/07/21 09:43:00;;;;;;;18.75;14.87;;;;;;;26.03;100.00;102234.90;1944312;73;39456;-75
2021/07/21 09:48:38;;;;;;;13.80;11.93;;;;;;;26.18;100.00;102231.34;1890971;74;86525;-75
2021/07/21 09:54:15;;;;;;;18.30;13.85;;;;;;;26.62;100.00;102232.91;1917572;73;39502;-76
2021/07/21 09:59:39;;;;;;;17.87;13.95;;;;;;;26.66;100.00;102231.83;1866406;75;86626;-75
2021/07/21 10:05:14;;;;;;;19.35;13.75;;;;;;;26.73;100.00;102231.22;1903627;75;86516;-74
2021/07/21 10:10:40;;;;;;;12.40;10.55;;;;;;;26.91;100.00;102240.34;1868501;76;85813;-76
2021/07/21 10:16:10;;;;;;;16.20;12.45;;;;;;;26.99;100.00;102225.92;1942427;73;39509;-75
2021/07/21 10:21:37;;;;;;;14.80;12.05;;;;;;;27.08;100.00;102222.28;1885465;75;86572;-75
2021/07/21 10:27:03;;;;;;;16.95;11.00;;;;;;;26.91;100.00;102227.50;1896053;73;39723;-76
2021/07/21 10:32:32;;;;;;;16.60;10.75;;;;;;;27.08;100.00;102222.91;1877684;75;86170;-74
2021/07/21 10:37:56;;;;;;;9.93;8.90;;;;;;;27.09;100.00;102226.80;1933144;72;39513;-75
2021/07/21 10:43:21;;;;;;;15.15;10.08;;;;;;;26.30;100.00;102227.66;1876266;75;86459;-74
2021/07/21 10:48:52;;;;;;;11.45;9.08;;;;;;;26.68;100.00;102226.61;1937912;73;39717;-75
2021/07/21 10:54:28;;;;;;;13.48;9.58;;;;;;;27.11;100.00;102215.03;1880869;75;86847;-74
2021/07/21 10:59:51;;;;;;;11.03;9.25;;;;;;;27.29;100.00;102214.09;1946011;73;39625;-76
2021/07/21 11:05:35;;;;;;;10.98;8.30;;;;;;;27.34;100.00;102211.78;1876601;76;86515;-74
2021/07/21 11:11:06;;;;;;;9.80;8.28;;;;;;;27.26;100.00;102211.95;1917511;73;39473;-76
2021/07/21 11:16:48;;;;;;;10.45;8.33;;;;;;;26.41;100.00;102213.14;1837349;77;85704;-73
2021/07/21 11:25:18;;;;;;;9.58;7.62;;;;;;;26.63;100.00;102209.75;1914278;75;86769;-74
2021/07/21 11:27:53;;;;;;;8.98;7.75;;;;;;;26.83;100.00;102215.63;1823252;77;934594;-75
2021/07/21 11:30:39;;;;;;;10.28;7.85;;;;;;;26.87;100.00;102218.81;1830361;77;936741;-76
2021/07/21 11:33:49;;;;;;;8.88;7.97;;;;;;;27.16;100.00;102214.77;1768922;78;938770;-74
2021/07/21 11:37:01;;;;;;;8.55;7.50;;;;;;;27.01;100.00;102214.95;1830108;77;936711;-77
2021/07/21 11:42:38;;;;;;;7.80;7.10;;;;;;;26.95;100.00;102197.06;1847794;75;86071;-76
2021/07/21 11:48:09;;;;;;;9.65;7.33;;;;;;;27.09;100.00;102194.59;1912569;73;39562;-74
2021/07/21 11:53:33;;;;;;;9.20;7.12;;;;;;;26.44;100.00;102191.66;1881781;75;86118;-76
2021/07/21 11:59:06;;;;;;;8.38;6.58;;;;;;;26.77;100.00;102194.26;1931292;72;39800;-74
2021/07/21 12:04:31;;;;;;;8.13;6.67;;;;;;;26.65;100.00;102186.00;1775766;79;86180;-76
2021/07/21 12:09:56;;;;;;;8.60;7.65;;;;;;;26.80;100.00;102182.12;1945241;73;39598;-76
2021/07/21 12:15:22;;;;;;;7.90;7.10;;;;;;;26.68;100.00;102187.28;1892071;75;86404;-77
2021/07/21 12:20:47;;;;;;;7.65;5.40;;;;;;;27.06;100.00;102181.06;1921708;73;39581;-76
2021/07/21 12:26:11;;;;;;;8.60;6.37;;;;;;;26.59;100.00;102182.33;1908813;73;39695;-76
2021/07/21 12:31:35;;;;;;;7.92;6.08;;;;;;;27.54;100.00;102173.63;1832413;77;86258;-75
2021/07/21 12:37:27;;;;;;;6.72;5.42;;;;;;;27.16;100.00;102173.41;1866698;75;86531;-76
2021/07/21 12:42:55;;;;;;;6.75;5.40;;;;;;;27.05;100.00;102173.09;1945490;73;39506;-76
2021/07/21 12:48:22;;;;;;;6.35;5.17;;;;;;;27.11;100.00;102180.80;1868590;75;85564;-77
2021/07/21 12:53:48;;;;;;;6.00;5.42;;;;;;;26.97;100.00;102184.67;1948661;73;39662;-74
2021/07/21 12:59:14;;;;;;;7.62;6.17;;;;;;;27.37;100.00;102174.56;1930786;72;86355;-75
2021/07/21 13:04:40;;;;;;;8.58;5.22;;;;;;;27.08;100.00;102179.48;1878292;76;86615;-77
2021/07/21 13:10:07;;;;;;;6.55;6.00;;;;;;;27.38;100.00;102168.50;1932880;72;39535;-77
2021/07/21 13:15:36;;;;;;;5.78;5.17;;;;;;;27.32;100.00;102168.53;1777587;79;86203;-76
2021/07/21 13:21:22;;;;;;;8.65;5.40;;;;;;;27.53;100.00;102168.28;1944926;72;39566;-77
2021/07/21 13:27:09;;;;;;;9.33;5.95;;;;;;;27.98;100.00;102165.70;1945925;73;39717;-76
2021/07/21 13:29:50;;;;;;;7.70;5.72;;;;;;;27.71;100.00;102165.87;1867235;75;932645;-76
2021/07/21 13:35:27;;;;;;;6.58;5.50;;;;;;;27.44;100.00;102159.88;1821493;76;86568;-77
2021/07/21 13:40:57;;;;;;;6.33;5.65;;;;;;;27.54;100.00;102156.50;1946837;73;39514;-76
2021/07/21 13:46:27;;;;;;;6.92;5.90;;;;;;;28.02;100.00;102151.53;1877888;76;86189;-77
2021/07/21 13:52:00;;;;;;;8.58;6.33;;;;;;;28.12;100.00;102153.82;1945052;73;39549;-78
2021/07/21 13:57:27;;;;;;;8.55;5.92;;;;;;;28.53;100.00;102156.58;1861834;76;86304;-77
2021/07/21 14:02:53;;;;;;;6.45;5.85;;;;;;;28.17;100.00;102158.41;1945601;73;39535;-75
2021/07/21 14:08:24;;;;;;;7.05;6.12;;;;;;;28.61;100.00;102153.25;1892543;74;86489;-75
2021/07/21 14:13:49;;;;;;;8.45;6.33;;;;;;;28.47;100.00;102153.77;1927057;72;39617;-75
2021/07/21 14:16:25;;;;;;;6.22;5.62;;;;;;;28.32;100.00;102160.41;1825275;75;934639;-76
2021/07/21 14:21:59;;;;;;;11.28;6.60;;;;;;;28.15;100.00;102157.38;1954161;73;39475;-78
2021/07/21 14:27:25;;;;;;;6.53;5.47;;;;;;;27.91;100.00;102155.56;1890490;75;86151;-77
2021/07/21 14:32:50;;;;;;;6.60;5.60;;;;;;;28.24;100.00;102145.11;1921326;73;39888;-76
2021/07/21 14:38:14;;;;;;;9.55;6.03;;;;;;;28.34;100.00;102152.27;1881794;75;86168;-79
2021/07/21 14:43:43;;;;;;;6.42;5.47;;;;;;;28.47;100.00;102146.62;1925644;73;39524;-77
2021/07/21 14:49:09;;;;;;;6.83;6.12;;;;;;;28.50;100.00;102149.56;1911655;73;39601;-77
2021/07/21 14:54:34;;;;;;;7.30;6.60;;;;;;;28.54;100.00;102146.77;1825075;78;86711;-76
2021/07/21 14:59:59;;;;;;;8.68;6.53;;;;;;;28.44;100.00;102141.67;1899121;73;39500;-74
2021/07/21 15:05:28;;;;;;;6.25;5.60;;;;;;;28.35;100.00;102142.50;1837852;77;86445;-73
2021/07/21 15:10:53;;;;;;;7.58;6.15;;;;;;;28.25;100.00;102147.37;1947386;73;39468;-77
2021/07/21 15:16:17;;;;;;;6.60;5.90;;;;;;;28.08;100.00;102137.17;1882370;75;86401;-78
2021/07/21 15:21:47;;;;;;;5.97;5.45;;;;;;;27.50;100.00;102142.73;1964684;69;39763;-76
2021/07/21 15:24:28;;;;;;;7.03;6.35;;;;;;;28.01;100.00;102137.84;1902809;73;934673;-76
2021/07/21 15:27:14;;;;;;;9.73;5.47;;;;;;;28.37;100.00;102140.08;1890055;74;935592;-77
2021/07/21 15:29:41;;;;;;;6.58;5.08;;;;;;;28.63;100.00;102140.22;1901991;74;934725;-77
2021/07/21 15:32:12;;;;;;;6.03;5.42;;;;;;;28.63;100.00;102136.53;1890107;74;936613;-74
2021/07/21 15:34:42;;;;;;;6.45;5.17;;;;;;;28.67;100.00;102134.59;1902337;74;934821;-74
2021/07/21 15:37:13;;;;;;;6.78;5.80;;;;;;;28.44;100.00;102142.50;1890398;73;936722;-74
2021/07/21 15:39:43;;;;;;;5.83;5.30;;;;;;;28.38;100.00;102138.87;1902727;74;934957;-76
2021/07/21 15:42:14;;;;;;;6.10;5.47;;;;;;;28.41;100.00;102141.80;1889835;73;954650;-74
2021/07/21 15:44:45;;;;;;;6.58;5.83;;;;;;;28.45;100.00;102145.56;1902728;74;934800;-75
2021/07/21 15:47:15;;;;;;;8.43;5.92;;;;;;;27.80;100.00;102141.64;1902684;74;936782;-75
2021/07/21 15:49:45;;;;;;;7.40;5.75;;;;;;;28.19;100.00;102138.87;1902751;74;934735;-75
2021/07/21 15:55:13;;;;;;;7.58;5.75;;;;;;;28.49;100.00;102139.35;1943348;73;39555;-75
2021/07/21 16:00:39;;;;;;;7.08;5.35;;;;;;;28.59;100.00;102145.04;1762196;80;86579;-75
2021/07/21 16:06:07;;;;;;;6.72;5.10;;;;;;;28.63;100.00;102143.67;1944078;73;39511;-75
2021/07/21 16:11:32;;;;;;;7.92;5.53;;;;;;;28.43;100.00;102141.44;1773252;79;86135;-75
2021/07/21 16:16:56;;;;;;;7.28;5.20;;;;;;;28.46;100.00;102141.51;1944162;73;39711;-77
2021/07/21 16:22:22;;;;;;;6.40;5.80;;;;;;;28.40;100.00;102135.05;1883185;75;86384;-76
2021/07/21 16:27:48;;;;;;;8.35;5.40;;;;;;;28.41;100.00;102131.00;1923876;73;39737;-78
2021/07/21 16:33:13;;;;;;;6.17;5.20;;;;;;;28.46;100.00;102127.22;1872951;72;40489;-77
2021/07/21 16:38:38;;;;;;;7.58;5.30;;;;;;;28.48;100.00;102125.42;1797659;78;86465;-75
2021/07/21 16:44:03;;;;;;;7.17;5.28;;;;;;;28.39;100.00;102127.08;1943620;73;39787;-75
2021/07/21 16:49:32;;;;;;;6.92;5.08;;;;;;;28.41;100.00;102121.00;1765042;79;85426;-75
2021/07/21 16:54:56;;;;;;;4.90;4.40;;;;;;;28.43;100.00;102120.00;1945148;73;39709;-76
2021/07/21 17:00:23;;;;;;;6.30;5.50;;;;;;;28.39;100.00;102125.65;1877287;75;86808;-76
2021/07/21 17:05:48;;;;;;;6.53;5.40;;;;;;;28.38;100.00;102118.87;1889611;71;83546;-72
2021/07/21 17:11:14;;;;;;;9.63;5.10;;;;;;;28.35;100.00;102117.60;1890386;74;86391;-76
2021/07/21 17:16:50;;;;;;;6.03;5.40;;;;;;;28.34;100.00;102123.68;1946331;71;86447;-73
2021/07/21 17:22:17;;;;;;;9.15;5.20;;;;;;;28.31;100.00;102118.73;1877421;75;85755;-73
2021/07/21 17:27:42;;;;;;;6.55;5.37;;;;;;;28.22;100.00;102118.95;1948152;73;40303;-70
2021/07/21 17:33:08;;;;;;;8.18;5.28;;;;;;;28.20;100.00;102116.22;1942580;73;39488;-72
2021/07/21 17:38:32;;;;;;;8.10;5.12;;;;;;;28.16;100.00;102119.01;1781170;78;86183;-71
2021/07/21 17:43:57;;;;;;;5.70;4.53;;;;;;;28.12;100.00;102118.70;1944745;73;39727;-72
2021/07/21 17:49:22;;;;;;;6.97;4.70;;;;;;;28.02;100.00;102105.83;1876404;75;86270;-73
2021/07/21 17:54:46;;;;;;;5.45;4.80;;;;;;;28.05;100.00;102115.06;1947240;73;39580;-70
2021/07/21 18:00:16;;;;;;;5.42;4.65;;;;;;;27.95;100.00;102115.05;1941963;73;39597;-70
2021/07/21 18:05:41;;;;;;;8.30;5.30;;;;;;;27.82;100.00;102113.52;1929320;73;39681;-70
2021/07/21 18:11:07;;;;;;;6.50;4.37;;;;;;;27.79;100.00;102120.58;1942800;73;39762;-71
2021/07/21 18:16:32;;;;;;;5.75;4.78;;;;;;;27.79;100.00;102117.13;1893807;74;86226;-73
2021/07/21 18:21:56;;;;;;;8.15;4.50;;;;;;;27.74;100.00;102114.55;1955789;73;39613;-72
2021/07/21 18:27:20;;;;;;;7.05;5.20;;;;;;;27.53;100.00;102116.89;1875707;74;86320;-72
2021/07/21 18:32:45;;;;;;;8.08;5.30;;;;;;;27.57;100.00;102124.94;1947622;73;39545;-70
2021/07/21 18:38:09;;;;;;;7.10;5.33;;;;;;;27.48;100.00;102125.14;1942045;73;39801;-72
2021/07/21 18:43:35;;;;;;;6.25;5.40;;;;;;;27.44;100.00;102128.47;1784073;79;86374;-73
2021/07/21 18:49:01;;;;;;;7.28;5.40;;;;;;;27.46;100.00;102123.23;1932928;72;39822;-70
2021/07/21 18:54:27;;;;;;;7.72;5.97;;;;;;;27.43;100.00;102125.98;1881724;75;85604;-72
2021/07/21 18:59:52;;;;;;;7.03;6.33;;;;;;;27.43;100.00;102128.83;1919054;73;39723;-73
2021/07/21 19:05:17;;;;;;;9.28;7.37;;;;;;;27.39;100.00;102134.45;1880613;75;86412;-70
2021/07/21 19:10:42;;;;;;;9.05;8.00;;;;;;;27.44;100.00;102144.77;1906447;73;39586;-66
2021/07/21 19:16:07;;;;;;;8.98;7.87;;;;;;;27.45;100.00;102150.12;1912049;73;39615;-72
2021/07/21 19:21:32;;;;;;;9.43;7.92;;;;;;;27.34;100.00;102153.91;1960523;69;85566;-73
2021/07/21 19:26:47;;;;;;;9.20;8.05;;;;;;;27.34;100.00;102153.91;1993599;70;39554;-71
2021/07/21 19:29:17;;;;;;;8.48;7.55;;;;;;;27.25;100.00;102162.64;1935416;73;934684;-69
2021/07/21 19:31:47;;;;;;;10.80;8.23;;;;;;;27.21;100.00;102165.17;1897375;74;934773;-67
2021/07/21 19:34:17;;;;;;;12.05;7.72;;;;;;;27.27;100.00;102163.69;1863304;76;937899;-72
2021/07/21 19:36:47;;;;;;;8.68;7.28;;;;;;;27.22;100.00;102176.20;1897586;74;936807;-74
2021/07/21 19:39:18;;;;;;;8.78;7.58;;;;;;;27.11;100.00;102168.80;1863331;76;936886;-72
2021/07/21 19:41:48;;;;;;;9.60;7.78;;;;;;;27.02;100.00;102175.27;1897413;74;934695;-67
2021/07/21 19:44:18;;;;;;;9.58;7.08;;;;;;;26.94;100.00;102178.28;1863226;76;936981;-70
2021/07/21 19:46:48;;;;;;;9.65;7.50;;;;;;;26.83;100.00;102176.51;1897040;74;934921;-65
2021/07/21 19:49:18;;;;;;;10.30;7.95;;;;;;;26.84;100.00;102182.45;1863075;76;936667;-66
2021/07/21 19:51:51;;;;;;;10.05;8.58;;;;;;;26.81;100.00;102183.78;1884873;74;938987;-72
2021/07/21 19:54:23;;;;;;;10.05;7.42;;;;;;;26.70;100.00;102182.87;1862885;76;938763;-74
2021/07/21 19:59:48;;;;;;;7.87;7.17;;;;;;;26.73;100.00;102178.48;1937042;73;39768;-72
2021/07/21 20:05:14;;;;;;;10.65;8.08;;;;;;;26.69;100.00;102177.55;1909355;73;40055;-74
2021/07/21 20:10:40;;;;;;;8.85;7.35;;;;;;;26.73;100.00;102194.99;1865994;75;85478;-65
2021/07/21 20:16:06;;;;;;;12.33;7.78;;;;;;;26.78;100.00;102193.91;1913997;73;39863;-68
2021/07/21 20:24:17;;;;;;;10.18;8.73;;;;;;;26.64;100.00;102209.99;1914146;75;86447;-71
2021/07/21 20:26:48;;;;;;;13.22;8.03;;;;;;;26.49;100.00;102215.02;1865558;76;934790;-66
2021/07/21 20:29:18;;;;;;;9.03;7.67;;;;;;;26.56;100.00;102212.40;1865597;76;938696;-71
2021/07/21 20:31:50;;;;;;;10.23;8.65;;;;;;;26.65;100.00;102219.38;1779055;79;936595;-67
2021/07/21 20:34:20;;;;;;;10.23;8.65;;;;;;;26.30;100.00;102219.12;1812400;77;939026;-73
2021/07/21 20:36:50;;;;;;;10.10;8.33;;;;;;;26.08;100.00;102233.83;1830090;76;938756;-71
2021/07/21 20:39:26;;;;;;;9.45;8.53;;;;;;;25.99;100.00;102235.97;1839440;77;938782;-72
2021/07/21 20:41:56;;;;;;;8.53;7.73;;;;;;;25.91;100.00;102236.33;1825657;77;936675;-67
2021/07/21 20:44:28;;;;;;;9.33;8.40;;;;;;;25.79;100.00;102232.07;1865192;76;936854;-67
2021/07/21 20:46:59;;;;;;;10.25;8.20;;;;;;;25.72;100.00;102238.92;1821974;77;936669;-67
2021/07/21 20:49:29;;;;;;;8.95;7.97;;;;;;;25.64;100.00;102245.56;1833582;77;938732;-66
2021/07/21 20:52:02;;;;;;;10.93;8.20;;;;;;;25.57;100.00;102243.31;1821934;77;936639;-66
2021/07/21 20:54:33;;;;;;;8.98;7.53;;;;;;;25.48;100.00;102248.83;1830252;77;937928;-71
2021/07/21 20:57:03;;;;;;;13.15;8.83;;;;;;;25.45;100.00;102244.69;1822028;76;937594;-70
2021/07/21 20:59:33;;;;;;;8.78;7.85;;;;;;;25.50;100.00;102253.59;1833747;77;938828;-73
2021/07/21 21:02:03;;;;;;;10.53;8.98;;;;;;;25.38;100.00;102252.36;1821786;76;936821;-73
2021/07/21 21:04:35;;;;;;;9.75;8.85;;;;;;;25.22;100.00;102264.77;1833767;77;938816;-72
2021/07/21 21:07:08;;;;;;;11.37;8.90;;;;;;;25.28;100.00;102261.95;1821887;77;936587;-66
2021/07/21 21:09:38;;;;;;;9.65;8.70;;;;;;;25.26;100.00;102258.61;1833683;77;936846;-73
2021/07/21 21:12:11;;;;;;;10.25;8.53;;;;;;;25.25;100.00;102261.21;1852817;76;936698;-71
2021/07/21 21:17:39;;;;;;;9.95;8.93;;;;;;;25.03;100.00;102255.33;1866245;75;85570;-68
2021/07/21 21:23:10;;;;;;;9.78;8.78;;;;;;;24.87;100.00;102255.74;1889553;73;39664;-68
2021/07/21 21:28:36;;;;;;;15.15;9.60;;;;;;;24.62;100.00;102259.02;1867915;76;86612;-70
2021/07/21 21:34:00;;;;;;;10.03;9.13;;;;;;;24.47;100.00;102265.34;1894790;73;39779;-68
2021/07/21 21:39:25;;;;;;;12.40;10.40;;;;;;;24.47;100.00;102277.52;1876234;76;86925;-78
2021/07/21 21:44:49;;;;;;;10.95;9.33;;;;;;;24.51;100.00;102274.00;1945821;73;39766;-65
2021/07/21 21:50:14;;;;;;;9.93;8.93;;;;;;;24.48;100.00;102279.18;1903179;75;86687;-67
2021/07/21 21:55:38;;;;;;;9.95;8.95;;;;;;;24.44;100.00;102278.20;1946267;71;86505;-67
2021/07/21 22:01:03;;;;;;;11.40;10.30;;;;;;;24.36;100.00;102282.53;1913973;73;39564;-74
2021/07/21 22:06:28;;;;;;;10.55;9.55;;;;;;;24.25;100.00;102286.95;1876207;76;86901;-74
2021/07/21 22:11:53;;;;;;;10.32;9.33;;;;;;;24.20;100.00;102285.14;1945237;73;39652;-68
2021/07/21 22:17:18;;;;;;;10.75;9.75;;;;;;;24.19;100.00;102286.31;1875646;75;86805;-69
2021/07/21 22:25:32;;;;;;;10.53;9.53;;;;;;;24.14;100.00;102285.63;1940173;73;86579;-76
2021/07/21 22:34:07;;;;;;;9.58;8.58;;;;;;;24.08;100.00;102287.86;1986329;69;39601;-70
2021/07/21 22:36:41;;;;;;;9.83;8.93;;;;;;;24.03;100.00;102295.98;1925486;73;932692;-70
2021/07/21 22:39:13;;;;;;;10.40;9.03;;;;;;;23.85;100.00;102300.06;1903267;73;936748;-69